Time;durP1;ratioP1;P1;durP2;ratioP2;P2;SDS_P1;SDS_P2;PMS_P1;PMS_P2;Temp;Humidity;BMP_temperature;BMP_pressure;BME280_temperature;BME280_humidity;BME280_pressure;Samples;Min_cycle;Max_cycle;Signal;HPM_P1;HPM_P2
2023/07/22 00:00:15;;;;;;;3.00;2.00;;;11.10;99.90;;;;;;2080483;28;20213;-84
2023/07/22 00:01:16;;;;;;;3.10;2.10;;;11.10;99.90;;;;;;2080685;28;20188;-85
2023/07/22 00:02:16;;;;;;;2.07;1.77;;;11.10;99.90;;;;;;2070688;28;20201;-83
2023/07/22 00:03:17;;;;;;;2.63;1.80;;;11.10;99.90;;;;;;2072289;28;20427;-84
2023/07/22 00:04:18;;;;;;;2.53;1.80;;;11.10;99.90;;;;;;2067710;28;20214;-85
2023/07/22 00:05:23;;;;;;;2.67;2.27;;;11.10;99.90;;;;;;2063087;28;20642;-84
2023/07/22 00:06:23;;;;;;;3.33;2.15;;;11.00;99.90;;;;;;2068363;28;20259;-85
2023/07/22 00:07:24;;;;;;;4.43;2.63;;;10.90;99.90;;;;;;2065696;28;20245;-85
2023/07/22 00:08:25;;;;;;;2.43;2.00;;;10.90;99.90;;;;;;2072642;28;20241;-83
2023/07/22 00:09:26;;;;;;;2.23;2.00;;;11.00;99.90;;;;;;2079365;28;20641;-82
2023/07/22 00:10:26;;;;;;;2.47;1.80;;;10.90;99.90;;;;;;2077171;28;20687;-84
2023/07/22 00:11:27;;;;;;;2.27;1.90;;;11.00;99.90;;;;;;2088288;28;20622;-83
2023/07/22 00:12:28;;;;;;;2.33;1.90;;;10.90;99.90;;;;;;2083982;28;20252;-84
2023/07/22 00:13:29;;;;;;;3.83;2.03;;;11.00;99.90;;;;;;2085900;28;20216;-84
2023/07/22 00:14:30;;;;;;;2.38;1.80;;;11.00;99.90;;;;;;2087198;28;20240;-83
2023/07/22 00:15:31;;;;;;;3.20;1.90;;;10.90;99.90;;;;;;2080786;28;20237;-82
2023/07/22 00:16:33;;;;;;;2.58;2.17;;;11.00;99.90;;;;;;2087144;28;20232;-83
2023/07/22 00:17:33;;;;;;;2.17;1.98;;;11.10;99.90;;;;;;2078332;28;20234;-82
2023/07/22 00:18:34;;;;;;;2.27;1.63;;;11.00;99.90;;;;;;2070319;28;20249;-82
2023/07/22 00:19:35;;;;;;;2.63;2.10;;;10.90;99.90;;;;;;2082896;28;20249;-84
2023/07/22 00:20:36;;;;;;;3.43;2.20;;;10.90;99.90;;;;;;2086484;28;20271;-82
2023/07/22 00:21:36;;;;;;;3.50;2.23;;;11.00;99.90;;;;;;2080163;28;20226;-84
2023/07/22 00:22:39;;;;;;;3.07;2.20;;;10.90;99.90;;;;;;2062742;28;20237;-83
2023/07/22 00:23:40;;;;;;;3.38;2.22;;;10.90;99.90;;;;;;2058216;28;20241;-83
2023/07/22 00:24:41;;;;;;;3.03;1.90;;;10.70;99.90;;;;;;2066444;28;20244;-82
2023/07/22 00:25:42;;;;;;;2.57;2.10;;;10.80;99.90;;;;;;2067109;28;20233;-84
2023/07/22 00:26:43;;;;;;;2.65;1.95;;;10.80;99.90;;;;;;2085610;28;20468;-84
2023/07/22 00:27:44;;;;;;;3.25;2.38;;;10.80;99.90;;;;;;2089915;28;20221;-85
2023/07/22 00:28:44;;;;;;;2.93;2.13;;;10.80;99.90;;;;;;2066289;28;20221;-83
2023/07/22 00:29:45;;;;;;;5.13;2.50;;;10.90;99.90;;;;;;2067280;28;20226;-83
2023/07/22 00:30:46;;;;;;;4.13;2.40;;;10.80;99.90;;;;;;2072483;28;20279;-84
2023/07/22 00:31:46;;;;;;;2.23;1.60;;;10.90;99.90;;;;;;2066020;28;20261;-84
2023/07/22 00:32:47;;;;;;;3.43;2.30;;;10.80;99.90;;;;;;2082013;28;20290;-84
2023/07/22 00:33:48;;;;;;;3.40;1.97;;;10.90;99.90;;;;;;2074708;28;20260;-84
2023/07/22 00:34:48;;;;;;;2.03;1.73;;;10.80;99.90;;;;;;2071453;28;20240;-83
2023/07/22 00:35:52;;;;;;;2.27;1.70;;;10.80;99.90;;;;;;2064402;28;20331;-85
2023/07/22 00:36:53;;;;;;;2.97;1.98;;;10.80;99.90;;;;;;2074866;28;20236;-84
2023/07/22 00:37:54;;;;;;;1.83;1.67;;;10.90;99.90;;;;;;2082771;28;20263;-84
2023/07/22 00:38:54;;;;;;;3.87;2.03;;;10.80;99.90;;;;;;2087141;28;20329;-84
2023/07/22 00:39:55;;;;;;;3.37;2.07;;;10.80;99.90;;;;;;2078386;28;20232;-83
2023/07/22 00:40:56;;;;;;;4.87;2.23;;;10.80;99.90;;;;;;2066487;28;20238;-84
2023/07/22 00:41:56;;;;;;;2.97;2.00;;;10.80;99.90;;;;;;2066192;28;20320;-84
2023/07/22 00:42:58;;;;;;;2.43;1.93;;;10.70;99.90;;;;;;2073411;28;20260;-83
2023/07/22 00:43:59;;;;;;;3.10;2.25;;;10.80;99.90;;;;;;2071006;28;20247;-84
2023/07/22 00:45:00;;;;;;;3.30;2.30;;;10.70;99.90;;;;;;2070854;28;20252;-83
2023/07/22 00:46:00;;;;;;;3.13;2.10;;;10.70;99.90;;;;;;2073556;28;20243;-84
2023/07/22 00:47:01;;;;;;;2.53;2.20;;;10.70;99.90;;;;;;2074149;28;20225;-83
2023/07/22 00:48:05;;;;;;;3.05;2.00;;;10.80;99.90;;;;;;2078536;28;20263;-83
2023/07/22 00:49:07;;;;;;;2.70;2.38;;;10.80;99.90;;;;;;2077781;28;20197;-85
2023/07/22 00:50:08;;;;;;;2.25;2.05;;;10.70;99.90;;;;;;2072594;28;20217;-84
2023/07/22 00:51:09;;;;;;;2.37;1.80;;;10.60;99.90;;;;;;2065781;28;20185;-84
2023/07/22 00:52:10;;;;;;;2.80;2.10;;;10.60;99.90;;;;;;2073785;28;20189;-85
2023/07/22 00:53:10;;;;;;;3.63;2.30;;;10.60;99.90;;;;;;2074748;28;20178;-83
2023/07/22 00:54:11;;;;;;;3.73;2.10;;;10.60;99.90;;;;;;2075192;28;20192;-84
2023/07/22 00:55:12;;;;;;;2.97;1.93;;;10.60;99.90;;;;;;2073890;28;20272;-84
2023/07/22 00:56:12;;;;;;;2.20;1.77;;;10.50;99.90;;;;;;2061746;28;20183;-85
2023/07/22 00:57:14;;;;;;;3.43;2.03;;;10.50;99.90;;;;;;2054857;28;20194;-84
2023/07/22 00:58:15;;;;;;;3.47;2.17;;;10.50;99.90;;;;;;2062083;28;20183;-83
2023/07/22 00:59:16;;;;;;;2.22;2.00;;;10.50;99.90;;;;;;2069686;28;20192;-83
2023/07/22 01:00:17;;;;;;;2.45;1.88;;;10.50;99.90;;;;;;2073713;28;20272;-83
2023/07/22 01:01:18;;;;;;;2.47;1.87;;;10.60;99.90;;;;;;2067785;28;20189;-84
2023/07/22 01:02:19;;;;;;;1.90;1.70;;;10.60;99.90;;;;;;2080284;28;20205;-84
2023/07/22 01:03:20;;;;;;;2.45;2.03;;;10.60;99.90;;;;;;2071014;28;20278;-83
2023/07/22 01:04:23;;;;;;;2.40;1.90;;;10.50;99.90;;;;;;2070371;28;20299;-83
2023/07/22 01:05:25;;;;;;;3.72;2.13;;;10.50;99.90;;;;;;2060028;28;20236;-85
2023/07/22 01:06:29;;;;;;;2.25;2.00;;;10.70;99.90;;;;;;2064053;28;20249;-84
2023/07/22 01:07:30;;;;;;;3.58;2.20;;;10.60;99.90;;;;;;2079985;28;20236;-84
2023/07/22 01:08:30;;;;;;;3.40;2.28;;;10.60;99.90;;;;;;2068696;28;20371;-83
2023/07/22 01:09:41;;;;;;;2.47;2.00;;;10.60;99.90;;;;;;2068084;28;20261;-83
2023/07/22 01:10:42;;;;;;;2.40;2.10;;;10.60;99.90;;;;;;2067582;28;20277;-84
2023/07/22 01:11:43;;;;;;;2.65;2.00;;;10.60;99.90;;;;;;2053543;28;20286;-83
2023/07/22 01:12:44;;;;;;;2.73;2.10;;;10.60;99.90;;;;;;2053450;28;20224;-85
2023/07/22 01:13:46;;;;;;;2.67;1.95;;;10.60;99.90;;;;;;2062827;28;20285;-83
2023/07/22 01:14:46;;;;;;;2.60;2.10;;;10.60;99.90;;;;;;2072679;28;20226;-85
2023/07/22 01:15:47;;;;;;;1.90;1.70;;;10.60;99.90;;;;;;2076230;28;20223;-84
2023/07/22 01:16:49;;;;;;;2.10;1.80;;;10.70;99.90;;;;;;2073092;28;20271;-84
2023/07/22 01:17:51;;;;;;;4.40;2.20;;;10.60;99.90;;;;;;2065872;28;20240;-84
2023/07/22 01:18:54;;;;;;;2.80;2.20;;;10.40;99.90;;;;;;2065140;28;20230;-84
2023/07/22 01:19:55;;;;;;;2.50;1.90;;;10.40;99.90;;;;;;2072106;28;20236;-83
2023/07/22 01:20:56;;;;;;;3.03;2.10;;;10.40;99.90;;;;;;2078195;28;20219;-83
2023/07/22 01:22:03;;;;;;;3.17;2.30;;;10.40;99.90;;;;;;2070685;28;20235;-84
2023/07/22 01:23:04;;;;;;;3.83;2.03;;;10.40;99.90;;;;;;2071162;28;20221;-84
2023/07/22 01:24:05;;;;;;;4.47;2.60;;;10.40;99.90;;;;;;2069236;28;20198;-82
2023/07/22 01:25:07;;;;;;;2.80;2.00;;;10.40;99.90;;;;;;2071247;28;20670;-85
2023/07/22 01:26:07;;;;;;;2.42;1.90;;;10.30;99.90;;;;;;2071884;28;20189;-84
2023/07/22 01:27:10;;;;;;;3.23;2.30;;;10.30;99.90;;;;;;2062349;28;20690;-84
2023/07/22 01:28:10;;;;;;;3.15;2.50;;;10.20;99.90;;;;;;2065178;28;20201;-83
2023/07/22 01:29:11;;;;;;;2.73;2.27;;;10.10;99.90;;;;;;2080797;28;20189;-82
2023/07/22 01:30:14;;;;;;;2.13;1.70;;;10.20;99.90;;;;;;2076857;28;20451;-83
2023/07/22 01:31:14;;;;;;;2.70;1.77;;;10.20;99.90;;;;;;2072138;28;20195;-84
2023/07/22 01:32:15;;;;;;;3.43;2.07;;;10.30;99.90;;;;;;2069031;28;20200;-83
2023/07/22 01:33:16;;;;;;;3.55;2.05;;;10.50;99.90;;;;;;2067147;28;20196;-84
2023/07/22 01:34:17;;;;;;;2.20;1.80;;;10.50;99.90;;;;;;2056854;28;20281;-84
2023/07/22 01:35:19;;;;;;;4.40;2.53;;;10.40;99.90;;;;;;2068026;28;20189;-84
2023/07/22 01:36:19;;;;;;;3.22;1.88;;;10.50;99.90;;;;;;2069322;28;20849;-82
2023/07/22 01:37:20;;;;;;;2.50;1.93;;;10.60;99.90;;;;;;2070569;28;20279;-84
2023/07/22 01:38:21;;;;;;;3.17;2.33;;;10.70;99.90;;;;;;2078914;28;20780;-84
2023/07/22 01:39:22;;;;;;;4.03;2.22;;;10.70;99.90;;;;;;2063502;28;20674;-83
2023/07/22 01:40:25;;;;;;;3.27;1.70;;;10.70;99.90;;;;;;2071938;28;20327;-84
2023/07/22 01:41:25;;;;;;;3.80;2.42;;;10.70;99.90;;;;;;2056967;28;20230;-83
2023/07/22 01:42:26;;;;;;;3.47;2.17;;;10.70;99.90;;;;;;2063703;28;20252;-85
2023/07/22 01:43:27;;;;;;;2.43;1.70;;;10.80;99.90;;;;;;2063371;28;20227;-84
2023/07/22 01:44:28;;;;;;;2.60;2.07;;;10.70;99.90;;;;;;2063455;28;20801;-83
2023/07/22 01:45:29;;;;;;;2.92;1.90;;;10.70;99.90;;;;;;2076271;28;20286;-85
2023/07/22 01:46:29;;;;;;;2.00;1.80;;;10.70;99.90;;;;;;2068306;28;20234;-83
2023/07/22 01:47:30;;;;;;;2.50;2.03;;;10.70;99.90;;;;;;2056363;28;20342;-84
2023/07/22 01:48:31;;;;;;;2.90;2.37;;;10.70;99.90;;;;;;2068369;28;20229;-83
2023/07/22 01:49:31;;;;;;;3.03;2.33;;;10.80;99.90;;;;;;2072784;28;20517;-83
2023/07/22 01:50:32;;;;;;;2.73;2.07;;;10.80;99.90;;;;;;2080989;28;20236;-83
2023/07/22 01:51:33;;;;;;;3.00;2.30;;;10.70;99.90;;;;;;2071577;28;20229;-84
2023/07/22 01:52:34;;;;;;;4.17;2.30;;;10.70;99.90;;;;;;2070686;28;20260;-84
2023/07/22 01:53:35;;;;;;;2.70;2.15;;;10.70;99.90;;;;;;2068978;28;20260;-84
2023/07/22 01:54:36;;;;;;;2.33;1.75;;;10.80;99.90;;;;;;2064086;28;20234;-84
2023/07/22 01:55:37;;;;;;;3.80;2.00;;;10.70;99.90;;;;;;2071386;28;20224;-84
2023/07/22 01:56:38;;;;;;;1.90;1.60;;;10.80;99.90;;;;;;2072188;28;20233;-83
2023/07/22 01:57:40;;;;;;;2.63;2.08;;;10.80;99.90;;;;;;2062758;28;20346;-84
2023/07/22 01:58:40;;;;;;;2.55;2.15;;;10.80;99.90;;;;;;2062447;28;20315;-84
2023/07/22 01:59:41;;;;;;;4.63;2.40;;;10.90;99.90;;;;;;2062363;28;20719;-83
2023/07/22 02:00:42;;;;;;;2.63;2.10;;;10.80;99.90;;;;;;2078187;28;20225;-84
2023/07/22 02:01:43;;;;;;;3.47;2.35;;;10.80;99.90;;;;;;2076520;28;20288;-84
2023/07/22 02:02:43;;;;;;;3.23;2.47;;;10.80;99.90;;;;;;2063519;28;20222;-83
2023/07/22 02:03:45;;;;;;;2.23;2.03;;;10.80;99.90;;;;;;2063370;28;20224;-83
2023/07/22 02:04:45;;;;;;;2.13;1.92;;;10.80;99.90;;;;;;2070839;28;20221;-84
2023/07/22 02:05:46;;;;;;;3.37;1.90;;;10.80;99.90;;;;;;2068744;28;20654;-82
2023/07/22 02:06:48;;;;;;;2.57;1.80;;;10.90;99.90;;;;;;2073779;28;20721;-84
2023/07/22 02:07:48;;;;;;;2.58;2.20;;;10.80;99.90;;;;;;2073720;28;20228;-83
2023/07/22 02:08:49;;;;;;;3.03;2.00;;;10.80;99.90;;;;;;2068299;28;20684;-83
2023/07/22 02:09:51;;;;;;;3.17;2.10;;;10.80;99.90;;;;;;2055612;28;20305;-84
2023/07/22 02:10:52;;;;;;;2.92;2.35;;;10.80;99.90;;;;;;2056072;28;20334;-84
2023/07/22 02:11:53;;;;;;;2.97;2.10;;;10.70;99.90;;;;;;2056163;28;20238;-84
2023/07/22 02:12:54;;;;;;;3.53;2.20;;;10.70;99.90;;;;;;2074038;28;20220;-84
2023/07/22 02:13:55;;;;;;;2.43;1.87;;;10.70;99.90;;;;;;2081567;28;20240;-83
2023/07/22 02:14:55;;;;;;;2.87;2.10;;;10.70;99.90;;;;;;2085688;28;20224;-83
2023/07/22 02:15:56;;;;;;;2.73;2.03;;;10.70;99.90;;;;;;2070384;28;20249;-84
2023/07/22 02:16:57;;;;;;;2.37;1.90;;;10.70;99.90;;;;;;2067829;28;20225;-84
2023/07/22 02:17:57;;;;;;;2.40;1.77;;;10.70;99.90;;;;;;2078859;28;20232;-84
2023/07/22 02:18:58;;;;;;;2.50;1.83;;;10.70;99.90;;;;;;2070294;28;20237;-83
2023/07/22 02:19:59;;;;;;;2.77;2.10;;;10.80;99.90;;;;;;2068004;28;20706;-84
2023/07/22 02:20:59;;;;;;;3.17;2.10;;;10.70;99.90;;;;;;2075652;28;20229;-84
2023/07/22 02:22:00;;;;;;;3.27;2.13;;;10.60;99.90;;;;;;2071214;28;20236;-83
2023/07/22 02:23:01;;;;;;;2.60;1.90;;;10.70;99.90;;;;;;2075857;28;20188;-83
2023/07/22 02:24:02;;;;;;;2.10;1.77;;;10.70;99.90;;;;;;2073067;28;20701;-84
2023/07/22 02:25:03;;;;;;;2.00;1.80;;;10.70;99.90;;;;;;2061692;28;20193;-83
2023/07/22 02:26:04;;;;;;;4.55;2.10;;;10.70;99.90;;;;;;2064133;28;20504;-83
2023/07/22 02:27:05;;;;;;;3.67;2.20;;;10.70;99.90;;;;;;2082457;28;20192;-83
2023/07/22 02:28:06;;;;;;;2.53;2.17;;;10.70;99.90;;;;;;2074716;28;20178;-82
2023/07/22 02:29:07;;;;;;;3.45;2.20;;;10.80;99.90;;;;;;2078067;28;20259;-83
2023/07/22 02:30:10;;;;;;;3.45;2.30;;;10.80;99.90;;;;;;2079437;28;21257;-84
2023/07/22 02:31:10;;;;;;;3.00;1.90;;;10.80;99.90;;;;;;2072476;28;20200;-84
2023/07/22 02:32:11;;;;;;;3.67;2.10;;;10.90;99.90;;;;;;2071606;28;20661;-84
2023/07/22 02:33:12;;;;;;;5.37;2.60;;;10.70;99.90;;;;;;2077783;28;20289;-84
2023/07/22 02:34:12;;;;;;;3.07;2.03;;;10.80;99.90;;;;;;2077267;28;20269;-84
2023/07/22 02:35:13;;;;;;;2.10;1.90;;;10.80;99.90;;;;;;2069346;28;20249;-84
2023/07/22 02:36:14;;;;;;;2.53;2.10;;;10.80;99.90;;;;;;2061735;28;20231;-84
2023/07/22 02:37:14;;;;;;;3.93;1.93;;;10.70;99.90;;;;;;2069404;28;20937;-83
2023/07/22 02:38:15;;;;;;;2.47;2.00;;;10.60;99.90;;;;;;2072706;28;20216;-84
2023/07/22 02:39:16;;;;;;;4.30;2.00;;;10.70;99.90;;;;;;2072878;28;20182;-85
2023/07/22 02:40:17;;;;;;;3.67;2.30;;;10.60;99.90;;;;;;2072747;28;20920;-83
2023/07/22 02:41:18;;;;;;;3.10;2.27;;;10.70;99.90;;;;;;2072979;28;20265;-84
2023/07/22 02:42:18;;;;;;;2.65;2.20;;;10.60;99.90;;;;;;2073143;28;20188;-84
2023/07/22 02:43:19;;;;;;;2.43;2.13;;;10.60;99.90;;;;;;2072888;28;20260;-83
2023/07/22 02:44:20;;;;;;;2.40;1.80;;;10.70;99.90;;;;;;2063633;28;20223;-84
2023/07/22 02:45:20;;;;;;;4.00;1.93;;;10.80;99.90;;;;;;2070355;28;20260;-84
2023/07/22 02:46:22;;;;;;;3.53;1.97;;;10.90;99.90;;;;;;2069008;28;20239;-84
2023/07/22 02:47:22;;;;;;;3.92;2.40;;;10.90;99.90;;;;;;2072944;28;20233;-83
2023/07/22 02:48:23;;;;;;;3.07;1.70;;;10.90;99.90;;;;;;2083582;28;20259;-82
2023/07/22 02:49:24;;;;;;;2.73;2.07;;;10.90;99.90;;;;;;2083309;28;20232;-82
2023/07/22 02:50:25;;;;;;;2.27;1.83;;;10.90;99.90;;;;;;2071216;28;20238;-83
2023/07/22 02:51:26;;;;;;;3.83;1.90;;;11.00;99.90;;;;;;2068807;28;20320;-83
2023/07/22 02:52:27;;;;;;;3.43;2.43;;;11.00;99.90;;;;;;2067626;28;20225;-83
2023/07/22 02:53:27;;;;;;;2.57;2.17;;;11.00;99.90;;;;;;2068712;28;20310;-83
2023/07/22 02:54:28;;;;;;;2.27;1.67;;;11.00;99.90;;;;;;2069433;28;20233;-82
2023/07/22 02:55:29;;;;;;;3.03;2.07;;;10.90;99.90;;;;;;2055653;28;20230;-82
2023/07/22 02:56:29;;;;;;;2.10;1.80;;;10.90;99.90;;;;;;2060113;28;20226;-83
2023/07/22 02:57:30;;;;;;;2.40;1.93;;;10.80;99.90;;;;;;2063563;28;20229;-83
2023/07/22 02:58:31;;;;;;;2.53;2.00;;;10.80;99.90;;;;;;2071021;28;20225;-84
2023/07/22 02:59:33;;;;;;;3.30;2.00;;;10.90;99.90;;;;;;2066704;28;20621;-82
2023/07/22 03:00:33;;;;;;;3.08;2.17;;;10.90;99.90;;;;;;2052598;28;20235;-84
2023/07/22 03:01:34;;;;;;;2.63;1.93;;;10.80;99.90;;;;;;2069092;28;20222;-84
2023/07/22 03:02:35;;;;;;;4.20;2.17;;;10.80;99.90;;;;;;2074897;28;20229;-84
2023/07/22 03:03:36;;;;;;;2.53;2.17;;;10.80;99.90;;;;;;2075713;28;20229;-83
2023/07/22 03:04:37;;;;;;;3.33;1.90;;;10.70;99.90;;;;;;2068912;28;20228;-83
2023/07/22 03:05:38;;;;;;;2.30;1.77;;;10.70;99.90;;;;;;2075811;28;20244;-82
2023/07/22 03:06:40;;;;;;;2.10;1.90;;;10.70;99.90;;;;;;2076378;28;20639;-85
2023/07/22 03:07:41;;;;;;;2.20;1.77;;;10.70;99.90;;;;;;2077735;28;20319;-83
2023/07/22 03:08:41;;;;;;;1.92;1.70;;;10.60;99.90;;;;;;2094143;28;20258;-83
2023/07/22 03:09:42;;;;;;;3.97;2.03;;;10.50;99.90;;;;;;2082003;28;20262;-85
2023/07/22 03:10:48;;;;;;;2.57;2.00;;;10.70;99.90;;;;;;2070061;28;20324;-83
2023/07/22 03:11:48;;;;;;;2.08;1.88;;;10.60;99.90;;;;;;2065583;28;20694;-83
2023/07/22 03:12:49;;;;;;;2.47;1.63;;;10.60;99.90;;;;;;2073133;28;20232;-82
2023/07/22 03:13:50;;;;;;;2.60;2.07;;;10.60;99.90;;;;;;2070324;28;20229;-83
2023/07/22 03:14:50;;;;;;;2.30;1.80;;;10.60;99.90;;;;;;2060798;28;20261;-83
2023/07/22 03:15:51;;;;;;;2.97;1.97;;;10.60;99.90;;;;;;2071855;28;20244;-84
2023/07/22 03:16:53;;;;;;;2.87;2.00;;;10.60;99.90;;;;;;2068959;28;20281;-83
2023/07/22 03:17:59;;;;;;;2.53;1.98;;;10.50;99.90;;;;;;2067434;28;20312;-83
2023/07/22 03:18:59;;;;;;;1.98;1.73;;;10.50;99.90;;;;;;2064659;28;20281;-84
2023/07/22 03:20:00;;;;;;;3.00;1.73;;;10.50;99.90;;;;;;2064082;28;20237;-83
2023/07/22 03:21:01;;;;;;;3.08;2.10;;;10.60;99.90;;;;;;2078500;28;20715;-83
2023/07/22 03:22:02;;;;;;;4.93;1.90;;;10.50;99.90;;;;;;2073026;28;20240;-83
2023/07/22 03:23:05;;;;;;;2.92;2.20;;;10.60;99.90;;;;;;2071328;28;20647;-84
2023/07/22 03:24:06;;;;;;;2.63;2.15;;;10.50;99.90;;;;;;2071523;28;20198;-84
2023/07/22 03:25:11;;;;;;;4.77;2.60;;;10.50;99.90;;;;;;2061197;28;20198;-84
2023/07/22 03:26:12;;;;;;;4.03;2.33;;;10.60;99.90;;;;;;2071063;28;20221;-84
2023/07/22 03:27:14;;;;;;;2.50;1.67;;;10.60;99.90;;;;;;2077628;28;20724;-84
2023/07/22 03:28:16;;;;;;;2.90;1.70;;;10.60;99.90;;;;;;2064160;28;20206;-84
2023/07/22 03:29:17;;;;;;;2.08;1.88;;;10.60;99.90;;;;;;2065690;28;20189;-85
2023/07/22 03:30:18;;;;;;;4.67;1.93;;;10.50;99.90;;;;;;2067968;28;20213;-84
2023/07/22 03:31:19;;;;;;;2.15;1.83;;;10.50;99.90;;;;;;2074988;28;20680;-84
2023/07/22 03:32:19;;;;;;;2.50;2.00;;;10.50;99.90;;;;;;2083771;28;20234;-83
2023/07/22 03:33:20;;;;;;;2.30;2.10;;;10.50;99.90;;;;;;2067822;28;20264;-84
2023/07/22 03:34:21;;;;;;;1.90;1.70;;;10.50;99.90;;;;;;2079366;28;20249;-83
2023/07/22 03:35:21;;;;;;;2.20;1.80;;;10.50;99.90;;;;;;2077348;28;20272;-83
2023/07/22 03:36:22;;;;;;;2.53;1.73;;;10.30;99.90;;;;;;2077477;28;20236;-85
2023/07/22 03:37:23;;;;;;;1.97;1.60;;;10.30;99.90;;;;;;2073921;28;20468;-83
2023/07/22 03:38:24;;;;;;;5.53;1.97;;;10.20;99.90;;;;;;2062585;28;20226;-85
2023/07/22 03:39:24;;;;;;;2.47;1.60;;;10.20;99.90;;;;;;2071951;28;20238;-83
2023/07/22 03:40:29;;;;;;;2.60;1.87;;;10.20;99.90;;;;;;2077707;28;20478;-83
2023/07/22 03:41:30;;;;;;;2.58;2.00;;;10.30;99.90;;;;;;2071170;28;20323;-85
2023/07/22 03:42:31;;;;;;;2.67;2.23;;;10.20;99.90;;;;;;2066061;28;20697;-85
2023/07/22 03:43:31;;;;;;;2.63;2.13;;;10.40;99.90;;;;;;2065907;28;20229;-85
2023/07/22 03:44:32;;;;;;;2.70;1.77;;;10.30;99.90;;;;;;2070300;28;20245;-85
2023/07/22 03:45:33;;;;;;;3.93;2.50;;;10.30;99.90;;;;;;2065378;28;20224;-84
2023/07/22 03:46:33;;;;;;;2.90;1.90;;;10.40;99.90;;;;;;2074121;28;20227;-85
2023/07/22 03:47:34;;;;;;;2.70;2.20;;;10.40;99.90;;;;;;2077915;28;20259;-85
2023/07/22 03:48:35;;;;;;;2.30;2.00;;;10.40;99.90;;;;;;2064986;28;20272;-83
2023/07/22 03:49:36;;;;;;;2.57;2.13;;;10.40;99.90;;;;;;2057490;28;20261;-84
2023/07/22 03:50:36;;;;;;;2.37;1.97;;;10.40;99.90;;;;;;2065585;28;20233;-85
2023/07/22 03:51:37;;;;;;;4.13;2.33;;;10.40;99.90;;;;;;2067013;28;20233;-85
2023/07/22 03:52:38;;;;;;;2.47;1.87;;;10.40;99.90;;;;;;2063710;28;20709;-84
2023/07/22 03:53:38;;;;;;;2.80;1.83;;;10.40;99.90;;;;;;2070380;28;20225;-85
2023/07/22 03:54:40;;;;;;;2.00;1.80;;;10.40;99.90;;;;;;2069032;28;20483;-83
2023/07/22 03:55:40;;;;;;;3.33;2.67;;;10.40;99.90;;;;;;2070077;28;20259;-84
2023/07/22 03:56:41;;;;;;;2.40;2.00;;;10.40;99.90;;;;;;2073447;28;20667;-85
2023/07/22 03:57:42;;;;;;;2.47;1.93;;;10.40;99.90;;;;;;2066982;28;20803;-85
2023/07/22 03:58:43;;;;;;;3.37;2.20;;;10.40;99.90;;;;;;2074705;28;20292;-85
2023/07/22 03:59:43;;;;;;;2.17;1.70;;;10.30;99.90;;;;;;2074445;28;20259;-85
2023/07/22 04:00:49;;;;;;;2.33;1.97;;;10.40;99.90;;;;;;2073971;28;20307;-85
2023/07/22 04:01:49;;;;;;;2.28;1.70;;;10.40;99.90;;;;;;2082319;28;20228;-86
2023/07/22 04:02:50;;;;;;;3.30;1.80;;;10.40;99.90;;;;;;2077544;28;20245;-84
2023/07/22 04:03:51;;;;;;;3.10;2.10;;;10.40;99.90;;;;;;2070158;28;20282;-86
2023/07/22 04:04:54;;;;;;;2.43;1.93;;;10.40;99.90;;;;;;2070712;28;20237;-86
2023/07/22 04:05:55;;;;;;;2.25;1.90;;;10.40;99.90;;;;;;2080810;28;20233;-85
2023/07/22 04:06:56;;;;;;;2.22;1.80;;;10.30;99.90;;;;;;2072375;28;20717;-85
2023/07/22 04:07:57;;;;;;;2.50;1.83;;;10.30;99.90;;;;;;2064957;28;20260;-84
2023/07/22 04:09:00;;;;;;;2.30;1.90;;;10.20;99.90;;;;;;2070906;28;20217;-84
2023/07/22 04:10:02;;;;;;;3.60;2.30;;;10.30;99.90;;;;;;2081639;28;20228;-85
2023/07/22 04:11:03;;;;;;;2.50;2.00;;;10.30;99.90;;;;;;2080797;28;20180;-84
2023/07/22 04:12:04;;;;;;;1.97;1.77;;;10.30;99.90;;;;;;2065637;28;20217;-84
2023/07/22 04:13:05;;;;;;;2.70;2.08;;;10.30;99.90;;;;;;2070535;28;20202;-84
2023/07/22 04:14:06;;;;;;;3.00;2.40;;;10.30;99.90;;;;;;2061496;28;20715;-84
2023/07/22 04:15:07;;;;;;;3.38;2.00;;;10.40;99.90;;;;;;2061605;28;20187;-83
2023/07/22 04:16:08;;;;;;;2.60;2.08;;;10.40;99.90;;;;;;2065400;28;20698;-84
2023/07/22 04:17:09;;;;;;;2.57;1.90;;;10.50;99.90;;;;;;2061586;28;20193;-85
2023/07/22 04:18:10;;;;;;;2.70;1.80;;;10.50;99.90;;;;;;2064372;28;20221;-85
2023/07/22 04:19:10;;;;;;;3.38;2.42;;;10.50;99.90;;;;;;2065207;28;20190;-84
2023/07/22 04:20:11;;;;;;;2.83;2.00;;;10.60;99.90;;;;;;2072294;28;20216;-84
2023/07/22 04:21:12;;;;;;;2.50;2.17;;;10.60;99.90;;;;;;2062047;28;20197;-83
2023/07/22 04:22:13;;;;;;;2.50;2.10;;;10.60;99.90;;;;;;2073406;28;20196;-83
2023/07/22 04:23:14;;;;;;;2.90;1.93;;;10.70;99.90;;;;;;2073417;28;20221;-84
2023/07/22 04:24:14;;;;;;;2.97;2.10;;;10.60;99.90;;;;;;2074211;28;20201;-83
2023/07/22 04:25:15;;;;;;;1.90;1.70;;;10.60;99.90;;;;;;2079068;28;20269;-84
2023/07/22 04:26:16;;;;;;;2.30;1.80;;;10.70;99.90;;;;;;2069466;28;20190;-84
2023/07/22 04:27:17;;;;;;;4.53;1.90;;;10.60;99.90;;;;;;2061220;28;20187;-82
2023/07/22 04:28:18;;;;;;;2.17;1.97;;;10.60;99.90;;;;;;2077782;28;20192;-84
2023/07/22 04:29:18;;;;;;;2.77;2.00;;;10.50;99.90;;;;;;2074105;28;20227;-84
2023/07/22 04:30:20;;;;;;;3.50;1.83;;;10.60;99.90;;;;;;2072080;28;20662;-83
2023/07/22 04:31:21;;;;;;;4.50;2.20;;;10.60;99.90;;;;;;2064493;28;20237;-84
2023/07/22 04:32:21;;;;;;;3.50;2.03;;;10.60;99.90;;;;;;2069207;28;20234;-83
2023/07/22 04:33:22;;;;;;;2.17;1.97;;;10.50;99.90;;;;;;2064659;28;20245;-84
2023/07/22 04:34:25;;;;;;;2.30;2.00;;;10.60;99.90;;;;;;2074601;28;20745;-82
2023/07/22 04:35:26;;;;;;;3.83;2.00;;;10.60;99.90;;;;;;2089604;28;20324;-85
2023/07/22 04:36:26;;;;;;;3.60;2.10;;;10.60;99.90;;;;;;2074363;28;21785;-83
2023/07/22 04:37:28;;;;;;;3.40;2.03;;;10.70;99.90;;;;;;2072235;28;20245;-85
2023/07/22 04:38:28;;;;;;;2.33;2.05;;;10.80;99.90;;;;;;2072389;28;20766;-83
2023/07/22 04:39:29;;;;;;;2.50;1.87;;;10.80;99.90;;;;;;2076930;28;20289;-83
2023/07/22 04:40:30;;;;;;;3.43;2.17;;;10.70;99.90;;;;;;2068888;28;20699;-83
2023/07/22 04:41:33;;;;;;;2.73;2.07;;;10.70;99.90;;;;;;2065278;28;20233;-83
2023/07/22 04:42:33;;;;;;;2.33;1.90;;;10.80;99.90;;;;;;2073104;28;20236;-84
2023/07/22 04:43:34;;;;;;;3.27;1.97;;;10.90;99.90;;;;;;2070855;28;20253;-84
2023/07/22 04:44:35;;;;;;;3.13;1.87;;;10.90;99.90;;;;;;2056409;28;20261;-84
2023/07/22 04:45:35;;;;;;;2.40;1.80;;;10.90;99.90;;;;;;2064476;28;20233;-84
2023/07/22 04:46:36;;;;;;;2.57;2.13;;;10.90;99.90;;;;;;2079401;28;20659;-83
2023/07/22 04:47:41;;;;;;;3.60;2.47;;;10.90;99.90;;;;;;2081624;28;20225;-83
2023/07/22 04:48:41;;;;;;;2.20;2.00;;;11.00;99.90;;;;;;2068673;28;20326;-84
2023/07/22 04:49:42;;;;;;;3.77;2.13;;;11.00;99.90;;;;;;2068859;28;20624;-84
2023/07/22 04:50:44;;;;;;;2.50;2.17;;;11.00;99.90;;;;;;2069005;28;20233;-84
2023/07/22 04:51:46;;;;;;;2.55;1.90;;;11.00;99.90;;;;;;2064417;28;20276;-84
2023/07/22 04:52:47;;;;;;;2.08;1.88;;;11.10;99.90;;;;;;2064098;28;20218;-81
2023/07/22 04:53:48;;;;;;;2.65;2.28;;;11.20;99.90;;;;;;2063985;28;20254;-83
2023/07/22 04:54:49;;;;;;;5.97;3.07;;;11.20;99.90;;;;;;2067396;28;20232;-83
2023/07/22 04:55:50;;;;;;;2.25;1.83;;;11.20;99.90;;;;;;2080444;28;20976;-86
2023/07/22 04:56:50;;;;;;;6.17;2.33;;;11.20;99.90;;;;;;2071642;28;20221;-84
2023/07/22 04:57:51;;;;;;;4.47;2.20;;;11.20;99.90;;;;;;2061892;28;20226;-83
2023/07/22 04:58:52;;;;;;;2.70;1.90;;;11.30;99.90;;;;;;2068782;28;20228;-83
2023/07/22 04:59:52;;;;;;;2.20;1.90;;;11.30;99.90;;;;;;2077581;28;20255;-83
2023/07/22 05:00:53;;;;;;;2.50;2.00;;;11.30;99.90;;;;;;2068923;28;20686;-82
2023/07/22 05:01:54;;;;;;;2.03;1.83;;;11.30;99.90;;;;;;2061133;28;20278;-83
2023/07/22 05:02:56;;;;;;;3.38;2.00;;;11.30;99.90;;;;;;2068349;28;20319;-82
2023/07/22 05:03:57;;;;;;;2.65;1.90;;;11.40;99.90;;;;;;2060137;28;20214;-84
2023/07/22 05:04:58;;;;;;;2.70;2.00;;;11.50;99.90;;;;;;2071039;28;20726;-84
2023/07/22 05:05:59;;;;;;;2.33;2.10;;;11.50;99.90;;;;;;2065523;28;20246;-82
2023/07/22 05:07:00;;;;;;;2.92;2.03;;;11.50;99.90;;;;;;2064698;28;20328;-84
2023/07/22 05:08:01;;;;;;;2.00;1.77;;;11.50;99.90;;;;;;2075560;28;20658;-83
2023/07/22 05:09:03;;;;;;;3.42;2.17;;;11.50;99.90;;;;;;2077572;28;20180;-83
2023/07/22 05:10:07;;;;;;;3.38;1.95;;;11.50;99.90;;;;;;2069480;28;20218;-83
2023/07/22 05:11:07;;;;;;;2.40;1.80;;;11.50;99.90;;;;;;2067733;28;20214;-83
2023/07/22 05:12:08;;;;;;;2.03;1.70;;;11.50;99.90;;;;;;2067935;28;20202;-82
2023/07/22 05:13:09;;;;;;;3.27;2.00;;;11.50;99.90;;;;;;2058976;28;20289;-84
2023/07/22 05:14:09;;;;;;;2.07;1.77;;;11.50;99.90;;;;;;2065762;28;20238;-85
2023/07/22 05:15:11;;;;;;;2.10;1.80;;;11.70;99.90;;;;;;2074379;28;20268;-84
2023/07/22 05:16:12;;;;;;;1.98;1.77;;;11.70;99.90;;;;;;2065004;28;20277;-85
2023/07/22 05:17:12;;;;;;;2.60;2.00;;;11.70;99.90;;;;;;2062827;28;20194;-85
2023/07/22 05:18:13;;;;;;;2.67;1.80;;;11.80;99.90;;;;;;2074151;28;20219;-84